createdAt,value
2022-08-01T00:00:31.065Z,12.70
2022-08-01T00:03:19.974Z,12.00
2022-08-01T00:05:49.006Z,7.10
2022-08-01T00:08:17.596Z,7.20
2022-08-01T00:11:05.354Z,10.20
2022-08-01T00:13:43.982Z,6.70
2022-08-01T00:16:33.685Z,5.80
2022-08-01T00:19:02.247Z,10.10
2022-08-01T00:21:30.621Z,9.50
2022-08-01T00:23:58.953Z,7.90
2022-08-01T00:26:27.404Z,10.00
2022-08-01T00:28:55.986Z,10.50
2022-08-01T00:31:28.152Z,13.90
2022-08-01T00:33:58.956Z,8.30
2022-08-01T00:36:30.791Z,9.10
2022-08-01T00:38:59.295Z,7.90
2022-08-01T00:41:27.775Z,5.90
2022-08-01T00:43:56.301Z,7.60
2022-08-01T00:46:24.997Z,11.70
2022-08-01T00:48:56.106Z,6.70
2022-08-01T00:51:25.009Z,6.20
2022-08-01T00:53:55.150Z,12.60
2022-08-01T00:56:26.489Z,5.50
2022-08-01T00:58:56.538Z,8.30
2022-08-01T01:01:25.200Z,11.40
2022-08-01T01:04:08.741Z,7.30
2022-08-01T01:07:08.433Z,9.30
2022-08-01T01:09:39.265Z,11.60
2022-08-01T01:12:25.700Z,7.00
2022-08-01T01:15:13.257Z,6.80
2022-08-01T01:18:04.707Z,6.00
2022-08-01T01:20:47.472Z,7.20
2022-08-01T01:23:24.868Z,7.00
2022-08-01T01:26:18.382Z,7.80
2022-08-01T01:29:10.429Z,7.60
2022-08-01T01:31:47.617Z,11.60
2022-08-01T01:34:20.038Z,7.00
2022-08-01T01:36:50.734Z,8.90
2022-08-01T01:39:21.062Z,8.80
2022-08-01T01:41:51.068Z,9.90
2022-08-01T01:44:19.928Z,8.90
2022-08-01T01:47:02.971Z,9.00
2022-08-01T01:49:43.680Z,12.80
2022-08-01T01:52:18.167Z,12.10
2022-08-01T01:54:52.807Z,12.50
2022-08-01T01:57:29.142Z,15.70
2022-08-01T02:00:00.155Z,9.40
2022-08-01T02:02:31.490Z,9.40
2022-08-01T02:05:01.854Z,12.30
2022-08-01T02:07:31.792Z,8.70
2022-08-01T02:10:04.234Z,13.80
2022-08-01T02:12:37.530Z,10.70
2022-08-01T02:15:20.586Z,8.00
2022-08-01T02:17:52.008Z,8.40
2022-08-01T02:20:26.308Z,8.90
2022-08-01T02:23:01.681Z,9.30
2022-08-01T02:26:09.137Z,8.50
2022-08-01T02:29:07.145Z,9.80
2022-08-01T02:31:40.018Z,20.00
2022-08-01T02:34:14.449Z,10.80
2022-08-01T02:36:45.655Z,9.50
2022-08-01T02:39:21.348Z,8.80
2022-08-01T02:42:00.479Z,9.20
2022-08-01T02:44:34.190Z,7.60
2022-08-01T02:47:14.935Z,8.00
2022-08-01T02:49:54.648Z,9.30
2022-08-01T02:52:28.316Z,8.70
2022-08-01T02:55:03.514Z,6.90
2022-08-01T02:57:51.582Z,9.90
2022-08-01T03:00:23.682Z,7.00
2022-08-01T03:03:17.007Z,8.20
2022-08-01T03:05:51.956Z,9.30
2022-08-01T03:08:23.903Z,9.70
2022-08-01T03:10:58.394Z,10.10
2022-08-01T03:13:47.766Z,7.30
2022-08-01T03:16:18.124Z,8.40
2022-08-01T03:18:48.596Z,7.60
2022-08-01T03:21:17.454Z,11.90
2022-08-01T03:23:58.440Z,8.30
2022-08-01T03:26:30.626Z,10.80
2022-08-01T03:29:20.527Z,8.00
2022-08-01T03:31:52.955Z,7.10
2022-08-01T03:34:29.773Z,8.40
2022-08-01T03:37:03.130Z,11.30
2022-08-01T03:39:38.830Z,12.90
2022-08-01T03:42:14.537Z,9.20
2022-08-01T03:45:05.233Z,8.50
2022-08-01T03:47:43.740Z,9.90
2022-08-01T03:50:15.382Z,10.40
2022-08-01T03:52:52.966Z,11.20
2022-08-01T03:55:23.277Z,7.50
2022-08-01T03:57:52.806Z,8.30
2022-08-01T04:00:28.975Z,10.30
2022-08-01T04:03:02.013Z,8.80
2022-08-01T04:05:30.187Z,9.70
2022-08-01T04:08:00.540Z,8.80
2022-08-01T04:10:29.579Z,9.60
2022-08-01T04:12:57.790Z,7.50
2022-08-01T04:15:26.466Z,8.60
2022-08-01T04:18:04.754Z,9.50
2022-08-01T04:20:32.927Z,8.50
2022-08-01T04:23:02.215Z,11.10
2022-08-01T04:25:35.553Z,11.50
2022-08-01T04:28:08.827Z,10.80
2022-08-01T04:30:39.948Z,10.80
2022-08-01T04:33:13.347Z,12.70
2022-08-01T04:36:05.759Z,7.30
2022-08-01T04:38:40.629Z,7.50
2022-08-01T04:41:12.472Z,8.90
2022-08-01T04:43:44.199Z,11.40
2022-08-01T04:46:22.748Z,11.50
2022-08-01T04:48:52.556Z,17.10
2022-08-01T04:51:23.516Z,10.40
2022-08-01T04:53:56.136Z,13.00
2022-08-01T04:56:25.077Z,9.90
2022-08-01T04:59:19.895Z,14.50
2022-08-01T05:01:57.255Z,12.20
2022-08-01T05:04:26.663Z,8.00
2022-08-01T05:06:55.321Z,12.50
2022-08-01T05:09:30.976Z,12.80
2022-08-01T05:12:02.625Z,11.70
2022-08-01T05:14:34.904Z,8.30
2022-08-01T05:17:26.242Z,9.00
2022-08-01T05:19:54.859Z,9.20
2022-08-01T05:22:28.083Z,17.10
2022-08-01T05:24:56.378Z,10.30
2022-08-01T05:27:41.095Z,13.50
2022-08-01T05:30:11.808Z,13.20
2022-08-01T05:32:43.130Z,8.20
2022-08-01T05:35:14.703Z,7.60
2022-08-01T05:37:46.589Z,11.80
2022-08-01T05:40:18.941Z,10.50
2022-08-01T05:42:50.003Z,10.20
2022-08-01T05:45:22.296Z,10.70
2022-08-01T05:47:50.816Z,11.60
2022-08-01T05:50:40.088Z,8.90
2022-08-01T05:53:37.723Z,14.10
2022-08-01T05:56:06.135Z,16.20
2022-08-01T05:58:38.552Z,13.00
2022-08-01T06:01:17.729Z,12.20
2022-08-01T06:03:46.629Z,9.30
2022-08-01T06:06:17.231Z,11.40
2022-08-01T06:08:50.017Z,11.70
2022-08-01T06:11:42.616Z,12.40
2022-08-01T06:14:11.062Z,12.00
2022-08-01T06:17:29.310Z,9.70
2022-08-01T06:20:21.089Z,9.10
2022-08-01T06:22:57.522Z,9.40
2022-08-01T06:25:37.511Z,6.80
2022-08-01T06:28:06.227Z,7.70
2022-08-01T06:30:35.245Z,10.80
2022-08-01T06:33:04.044Z,7.60
2022-08-01T06:35:42.003Z,11.60
2022-08-01T06:38:31.457Z,13.00
2022-08-01T06:41:03.726Z,10.10
2022-08-01T06:43:38.235Z,10.00
2022-08-01T06:46:35.014Z,11.20
2022-08-01T06:49:20.261Z,9.10
2022-08-01T06:51:48.828Z,9.10
2022-08-01T06:54:19.896Z,8.70
2022-08-01T06:56:59.635Z,7.40
2022-08-01T07:00:11.275Z,7.80
2022-08-01T07:03:22.184Z,11.10
2022-08-01T07:06:11.950Z,9.30
2022-08-01T07:08:45.158Z,8.70
2022-08-01T07:11:16.183Z,8.50
2022-08-01T07:14:15.501Z,8.50
2022-08-01T07:16:47.884Z,9.70
2022-08-01T07:19:21.714Z,10.40
2022-08-01T07:21:55.044Z,10.90
2022-08-01T07:24:57.064Z,11.40
2022-08-01T07:28:05.567Z,13.30
2022-08-01T07:30:34.054Z,14.10
2022-08-01T07:33:11.465Z,9.50
2022-08-01T07:35:43.413Z,10.30
2022-08-01T07:38:28.075Z,10.40
2022-08-01T07:41:53.246Z,10.40
2022-08-01T07:44:21.596Z,11.60
2022-08-01T07:46:58.641Z,12.70
2022-08-01T07:49:50.093Z,10.80
2022-08-01T07:52:46.982Z,10.50
2022-08-01T07:55:47.699Z,10.60
2022-08-01T07:58:41.101Z,11.60
2022-08-01T08:01:13.807Z,10.40
2022-08-01T08:03:50.068Z,14.70
2022-08-01T08:06:52.376Z,8.20
2022-08-01T08:09:23.471Z,14.00
2022-08-01T08:12:29.020Z,9.50
2022-08-01T08:15:05.280Z,10.90
2022-08-01T08:17:45.721Z,11.20
2022-08-01T08:20:30.469Z,13.60
2022-08-01T08:23:00.903Z,11.70
2022-08-01T08:25:48.420Z,11.70
2022-08-01T08:28:26.540Z,10.70
2022-08-01T08:31:25.070Z,11.50
2022-08-01T08:34:00.634Z,14.80
2022-08-01T08:36:58.781Z,9.30
2022-08-01T08:39:59.013Z,10.50
2022-08-01T08:43:19.690Z,13.00
2022-08-01T08:46:00.055Z,11.50
2022-08-01T08:48:40.180Z,10.70
2022-08-01T08:51:33.467Z,12.70
2022-08-01T08:54:45.400Z,9.50
2022-08-01T08:57:30.835Z,9.00
2022-08-01T09:00:22.753Z,9.10
2022-08-01T09:03:21.866Z,7.20
2022-08-01T09:06:31.192Z,7.70
2022-08-01T09:09:01.732Z,6.60
2022-08-01T09:11:57.023Z,10.20
2022-08-01T09:15:10.136Z,10.50
2022-08-01T09:18:22.391Z,6.80
2022-08-01T09:21:15.570Z,7.40
2022-08-01T09:24:31.051Z,6.50
2022-08-01T09:27:34.851Z,8.30
2022-08-01T09:30:44.571Z,5.40
2022-08-01T09:34:04.884Z,6.30
2022-08-01T09:37:53.068Z,6.20
2022-08-01T09:41:26.154Z,7.70
2022-08-01T09:45:41.092Z,5.30
2022-08-01T09:48:59.604Z,5.20
2022-08-01T09:52:19.336Z,5.20
2022-08-01T09:55:31.873Z,4.10
2022-08-01T09:58:06.355Z,3.80
2022-08-01T10:01:23.081Z,3.50
2022-08-01T10:04:40.354Z,2.40
2022-08-01T10:07:43.947Z,5.00
2022-08-01T10:11:12.665Z,6.90
2022-08-01T10:14:25.586Z,3.60
2022-08-01T10:17:50.621Z,8.30
2022-08-01T10:21:56.374Z,4.10
2022-08-01T10:25:04.471Z,4.70
2022-08-01T10:28:49.479Z,3.90
2022-08-01T10:32:39.462Z,4.70
2022-08-01T10:36:10.079Z,4.80
2022-08-01T10:39:40.158Z,6.10
2022-08-01T10:43:26.661Z,4.50
2022-08-01T10:46:47.674Z,4.40
2022-08-01T10:50:21.977Z,7.50
2022-08-01T10:53:58.460Z,4.00
2022-08-01T10:57:30.230Z,5.10
2022-08-01T11:00:45.945Z,3.90
2022-08-01T11:04:35.335Z,7.70
2022-08-01T11:19:10.001Z,4.60
2022-08-01T11:22:43.813Z,5.60
2022-08-01T11:25:13.742Z,4.50
2022-08-01T11:28:15.683Z,5.30
2022-08-01T11:30:56.097Z,5.80
2022-08-01T11:33:46.902Z,5.40
2022-08-01T11:36:18.284Z,8.10
2022-08-01T11:38:48.746Z,9.00
2022-08-01T11:41:36.853Z,5.70
2022-08-01T11:44:14.478Z,14.30
2022-08-01T11:47:15.463Z,8.40
2022-08-01T11:49:49.385Z,8.30
2022-08-01T11:52:47.905Z,11.80
2022-08-01T11:55:22.028Z,8.20
2022-08-01T11:58:03.756Z,11.40
2022-08-01T12:00:36.447Z,11.10
2022-08-01T12:03:34.012Z,8.40
2022-08-01T12:06:12.434Z,5.80
2022-08-01T12:08:41.452Z,6.90
2022-08-01T12:11:13.207Z,5.90
2022-08-01T12:13:45.429Z,8.30
2022-08-01T12:17:09.502Z,5.80
2022-08-01T12:19:42.053Z,10.20
2022-08-01T12:22:17.370Z,7.50
2022-08-01T12:24:46.379Z,4.70
2022-08-01T12:27:40.349Z,5.10
2022-08-01T12:30:27.181Z,6.00
2022-08-01T12:32:57.415Z,9.40
2022-08-01T12:35:54.682Z,4.20
2022-08-01T12:38:28.853Z,3.90
2022-08-01T12:41:23.812Z,7.10
2022-08-01T12:44:13.850Z,4.10
2022-08-01T12:46:59.732Z,3.90
2022-08-01T12:49:49.778Z,4.80
2022-08-01T12:52:26.792Z,6.40
2022-08-01T12:55:57.844Z,4.20
2022-08-01T12:58:41.918Z,3.50
2022-08-01T13:01:48.434Z,3.10
2022-08-01T13:04:49.085Z,3.90
2022-08-01T13:07:21.326Z,4.60
2022-08-01T13:09:54.086Z,3.40
2022-08-01T13:12:34.250Z,3.00
2022-08-01T13:15:26.180Z,3.30
2022-08-01T13:18:02.465Z,4.50
2022-08-01T13:20:40.089Z,3.50
2022-08-01T13:23:19.933Z,2.60
2022-08-01T13:26:09.400Z,4.20
2022-08-01T13:29:09.888Z,3.10
2022-08-01T13:31:45.752Z,2.80
2022-08-01T13:34:40.612Z,2.50
2022-08-01T13:37:18.129Z,2.80
2022-08-01T13:39:50.222Z,3.30
2022-08-01T13:43:01.892Z,2.60
2022-08-01T13:46:31.670Z,4.70
2022-08-01T13:49:24.794Z,6.20
2022-08-01T13:53:05.599Z,5.20
2022-08-01T13:56:11.796Z,4.20
2022-08-01T13:59:17.714Z,2.90
2022-08-01T14:02:42.416Z,4.00
2022-08-01T14:06:01.101Z,1.80
2022-08-01T14:10:05.132Z,4.40
2022-08-01T14:13:36.765Z,4.20
2022-08-01T14:16:12.329Z,2.40
2022-08-01T14:18:56.994Z,2.20
2022-08-01T14:21:55.788Z,2.10
2022-08-01T14:26:03.653Z,2.50
2022-08-01T14:29:03.657Z,2.10
2022-08-01T14:32:19.035Z,3.60
2022-08-01T14:36:20.733Z,3.70
2022-08-01T14:40:02.482Z,4.40
2022-08-01T14:42:30.990Z,4.30
2022-08-01T14:45:33.763Z,9.60
2022-08-01T14:48:05.367Z,3.10
2022-08-01T14:50:33.452Z,4.40
2022-08-01T14:53:23.621Z,6.60
2022-08-01T14:55:55.485Z,3.70
2022-08-01T14:58:26.216Z,3.60
2022-08-01T15:00:58.531Z,5.40
2022-08-01T15:03:27.895Z,3.00
2022-08-01T15:05:59.856Z,4.70
2022-08-01T15:08:28.382Z,2.70
2022-08-01T15:10:56.826Z,2.50
2022-08-01T15:13:26.565Z,2.20
2022-08-01T15:15:55.211Z,2.40
2022-08-01T15:18:30.364Z,2.60
2022-08-01T15:21:03.110Z,4.80
2022-08-01T15:23:31.764Z,3.10
2022-08-01T15:26:00.240Z,8.90
2022-08-01T15:28:32.183Z,9.10
2022-08-01T15:31:02.011Z,4.30
2022-08-01T15:33:31.360Z,3.00
2022-08-01T15:35:59.861Z,2.60
2022-08-01T15:38:29.316Z,4.30
2022-08-01T15:40:58.283Z,4.20
2022-08-01T15:43:27.808Z,3.30
2022-08-01T15:45:58.422Z,2.70
2022-08-01T15:48:26.758Z,7.70
2022-08-01T15:50:54.918Z,3.30
2022-08-01T15:53:35.361Z,2.80
2022-08-01T15:56:04.528Z,4.60
2022-08-01T15:58:38.075Z,7.10
2022-08-01T16:01:06.187Z,2.80
2022-08-01T16:03:37.349Z,3.10
2022-08-01T16:06:05.727Z,3.50
2022-08-01T16:08:34.438Z,3.20
2022-08-01T16:11:13.236Z,5.30
2022-08-01T16:13:46.886Z,3.40
2022-08-01T16:16:17.117Z,3.70
2022-08-01T16:18:53.670Z,3.50
2022-08-01T16:21:25.161Z,3.90
2022-08-01T16:24:03.818Z,3.20
2022-08-01T16:26:32.291Z,5.00
2022-08-01T16:29:00.919Z,3.60
2022-08-01T16:31:56.860Z,3.20
2022-08-01T16:34:33.165Z,2.50
2022-08-01T16:37:03.917Z,2.20
2022-08-01T16:39:58.562Z,4.70
2022-08-01T16:42:29.767Z,2.70
2022-08-01T16:44:59.863Z,3.40
2022-08-01T16:47:28.105Z,1.80
2022-08-01T16:50:02.633Z,2.70
2022-08-01T16:52:31.117Z,2.60
2022-08-01T16:55:03.396Z,2.90
2022-08-01T16:57:38.531Z,2.80
2022-08-01T17:00:21.192Z,5.70
2022-08-01T17:02:51.386Z,2.50
2022-08-01T17:05:23.788Z,4.50
2022-08-01T17:07:53.046Z,2.30
2022-08-01T17:10:21.436Z,7.00
2022-08-01T17:12:53.941Z,4.50
2022-08-01T17:15:23.452Z,2.60
2022-08-01T17:17:56.833Z,2.50
2022-08-01T17:20:25.387Z,2.60
2022-08-01T17:22:53.817Z,2.80
2022-08-01T17:25:22.245Z,3.60
2022-08-01T17:27:53.932Z,3.00
2022-08-01T17:30:22.893Z,4.20
2022-08-01T17:33:03.825Z,3.80
2022-08-01T17:35:35.635Z,2.90
2022-08-01T17:38:04.320Z,6.50
2022-08-01T17:40:41.112Z,11.90
2022-08-01T17:43:10.097Z,3.30
2022-08-01T17:45:51.079Z,5.50
2022-08-01T17:48:20.722Z,3.00
2022-08-01T17:50:49.707Z,3.30
2022-08-01T17:53:21.938Z,5.20
2022-08-01T17:55:54.051Z,3.70
2022-08-01T17:58:45.994Z,6.10
2022-08-01T18:01:16.879Z,2.80
2022-08-01T18:03:46.099Z,4.00
2022-08-01T18:06:19.300Z,2.80
2022-08-01T18:08:49.144Z,3.50
2022-08-01T18:11:17.583Z,8.90
2022-08-01T18:13:46.268Z,2.80
2022-08-01T18:16:18.069Z,10.60
2022-08-01T18:18:46.899Z,4.10
2022-08-01T18:21:19.231Z,2.60
2022-08-01T18:23:52.178Z,2.60
2022-08-01T18:26:22.181Z,2.10
2022-08-01T18:28:50.688Z,2.00
2022-08-01T18:31:24.571Z,3.70
2022-08-01T18:33:56.243Z,1.80
2022-08-01T18:36:33.297Z,1.80
2022-08-01T18:39:06.343Z,2.00
2022-08-01T18:41:39.797Z,1.90
2022-08-01T18:44:09.249Z,1.90
2022-08-01T18:46:40.896Z,5.70
2022-08-01T18:49:12.263Z,4.00
2022-08-01T18:51:44.658Z,5.30
2022-08-01T18:54:17.295Z,5.30
2022-08-01T18:56:45.940Z,2.20
2022-08-01T18:59:14.764Z,3.60
2022-08-01T19:01:44.122Z,7.10
2022-08-01T19:04:16.830Z,3.90
2022-08-01T19:06:47.602Z,4.90
2022-08-01T19:09:20.851Z,2.50
2022-08-01T19:11:50.342Z,2.70
2022-08-01T19:14:18.940Z,3.90
2022-08-01T19:16:48.349Z,5.50
2022-08-01T19:19:22.848Z,3.30
2022-08-01T19:21:57.054Z,3.50
2022-08-01T19:24:25.860Z,8.50
2022-08-01T19:26:57.022Z,7.50
2022-08-01T19:29:35.281Z,5.20
2022-08-01T19:32:06.697Z,8.40
2022-08-01T19:34:42.708Z,4.40
2022-08-01T19:37:15.042Z,4.10
2022-08-01T19:39:45.087Z,6.90
2022-08-01T19:42:14.100Z,3.90
2022-08-01T19:44:46.240Z,5.40
2022-08-01T19:47:17.881Z,3.40
2022-08-01T19:49:49.233Z,5.50
2022-08-01T19:52:26.046Z,3.20
2022-08-01T19:54:57.619Z,3.40
2022-08-01T19:57:45.194Z,3.40
2022-08-01T20:00:25.095Z,2.80
2022-08-01T20:02:59.223Z,3.90
2022-08-01T20:05:32.846Z,5.80
2022-08-01T20:08:03.481Z,6.20
2022-08-01T20:10:36.388Z,4.30
2022-08-01T20:13:06.954Z,6.00
2022-08-01T20:15:35.902Z,4.10
2022-08-01T20:18:05.001Z,4.20
2022-08-01T20:20:35.825Z,13.70
2022-08-01T20:23:17.918Z,5.30
2022-08-01T20:25:52.460Z,5.50
2022-08-01T20:28:31.767Z,8.00
2022-08-01T20:31:05.522Z,4.80
2022-08-01T20:33:47.094Z,4.50
2022-08-01T20:36:25.688Z,10.00
2022-08-01T20:38:56.852Z,5.20
2022-08-01T20:41:27.100Z,7.80
2022-08-01T20:43:57.485Z,5.10
2022-08-01T20:46:31.144Z,5.60
2022-08-01T20:48:59.620Z,11.30
2022-08-01T20:51:29.022Z,11.60
2022-08-01T20:53:57.875Z,11.80
2022-08-01T20:56:34.762Z,6.60
2022-08-01T20:59:39.601Z,7.70
2022-08-01T21:02:50.465Z,8.40
2022-08-01T21:05:35.502Z,6.40
2022-08-01T21:08:22.359Z,7.70
2022-08-01T21:10:57.610Z,7.40
2022-08-01T21:13:41.258Z,5.70
2022-08-01T21:16:22.704Z,6.20
2022-08-01T21:19:19.105Z,6.60
2022-08-01T21:21:57.673Z,7.50
2022-08-01T21:24:34.867Z,7.80
2022-08-01T21:27:04.655Z,10.30
2022-08-01T21:29:34.725Z,8.80
2022-08-01T21:32:15.557Z,6.40
2022-08-01T21:34:47.850Z,6.10
2022-08-01T21:37:17.415Z,11.70
2022-08-01T21:39:47.013Z,7.00
2022-08-01T21:42:18.860Z,8.20
2022-08-01T21:44:48.008Z,7.90
2022-08-01T21:47:17.044Z,7.60
2022-08-01T21:49:45.727Z,6.70
2022-08-01T21:52:21.401Z,8.30
2022-08-01T21:55:10.814Z,11.10
2022-08-01T21:57:56.135Z,7.60
2022-08-01T22:00:25.664Z,6.70
2022-08-01T22:03:19.678Z,7.30
2022-08-01T22:05:51.565Z,6.30
2022-08-01T22:08:27.803Z,6.60
2022-08-01T22:11:02.252Z,5.70
2022-08-01T22:13:30.739Z,7.10
2022-08-01T22:15:59.750Z,7.80
2022-08-01T22:18:28.558Z,6.60
2022-08-01T22:21:00.788Z,7.30
2022-08-01T22:23:30.143Z,7.00
2022-08-01T22:25:59.763Z,9.70
2022-08-01T22:28:29.828Z,8.70
2022-08-01T22:30:59.159Z,7.20
2022-08-01T22:33:28.834Z,11.20
2022-08-01T22:35:57.691Z,6.10
2022-08-01T22:38:27.383Z,9.10
2022-08-01T22:41:04.309Z,6.60
2022-08-01T22:43:41.992Z,6.30
2022-08-01T22:46:23.969Z,7.20
2022-08-01T22:48:56.767Z,6.50
2022-08-01T22:51:55.347Z,7.90
2022-08-01T22:54:37.043Z,6.20
2022-08-01T22:57:11.631Z,8.50
2022-08-01T22:59:54.980Z,6.30
2022-08-01T23:02:23.239Z,10.20
2022-08-01T23:04:59.436Z,7.10
2022-08-01T23:07:33.991Z,6.00
2022-08-01T23:10:05.592Z,7.50
2022-08-01T23:12:34.040Z,6.40
2022-08-01T23:15:02.291Z,12.10
2022-08-01T23:17:31.787Z,8.20
2022-08-01T23:20:06.116Z,7.80
2022-08-01T23:22:35.857Z,5.90
2022-08-01T23:25:09.572Z,6.90
2022-08-01T23:27:54.199Z,7.60
2022-08-01T23:30:32.331Z,11.10
2022-08-01T23:33:01.290Z,6.50
2022-08-01T23:35:30.198Z,8.80
2022-08-01T23:38:02.801Z,12.00
2022-08-01T23:40:32.913Z,12.20
2022-08-01T23:43:02.525Z,11.10
2022-08-01T23:46:02.673Z,7.00
2022-08-01T23:48:19.930Z,11.90
2022-08-01T23:50:48.134Z,7.10
2022-08-01T23:53:16.384Z,7.50
2022-08-01T23:55:44.674Z,7.00
2022-08-01T23:58:12.696Z,11.50
